Time;durP1;ratioP1;P1;durP2;ratioP2;P2;SDS_P1;SDS_P2;PMS_P1;PMS_P2;Temp;Humidity;BMP_temperature;BMP_pressure;BME280_temperature;BME280_humidity;BME280_pressure;Samples;Min_cycle;Max_cycle;Signal;HPM_P1;HPM_P2
2021/06/25 00:02:16;;;;;;;18.77;10.35;;;14.80;99.90;;;;;;4924592;28;20039;-87
2021/06/25 00:04:42;;;;;;;13.98;9.13;;;14.70;99.90;;;;;;4935664;29;20059;-87
2021/06/25 00:07:08;;;;;;;18.55;10.20;;;14.70;99.90;;;;;;4934448;29;20039;-87
2021/06/25 00:09:33;;;;;;;17.65;10.75;;;14.70;99.90;;;;;;4935212;29;20050;-87
2021/06/25 00:12:00;;;;;;;19.55;10.38;;;14.60;99.90;;;;;;4955755;28;20035;-86
2021/06/25 00:14:25;;;;;;;16.70;9.88;;;14.70;99.90;;;;;;4922671;28;20030;-86
2021/06/25 00:16:53;;;;;;;16.40;10.45;;;14.70;99.90;;;;;;4938502;28;20421;-87
2021/06/25 00:19:19;;;;;;;18.65;10.18;;;14.70;99.90;;;;;;4970982;28;20589;-88
2021/06/25 00:21:45;;;;;;;17.05;9.85;;;14.70;99.90;;;;;;4958258;28;20034;-87
2021/06/25 00:24:11;;;;;;;16.40;9.90;;;14.70;99.90;;;;;;4939336;29;20414;-87
2021/06/25 00:26:37;;;;;;;20.40;10.35;;;14.70;99.90;;;;;;4939398;29;20037;-88
2021/06/25 00:29:03;;;;;;;18.52;9.93;;;14.70;99.90;;;;;;4954870;29;20499;-87
2021/06/25 00:31:29;;;;;;;14.27;8.55;;;14.80;99.90;;;;;;4970979;28;20032;-87
2021/06/25 00:33:55;;;;;;;16.65;8.98;;;14.80;99.90;;;;;;4955169;28;20031;-87
2021/06/25 00:36:21;;;;;;;13.10;7.90;;;14.80;99.90;;;;;;4956168;28;20026;-87
2021/06/25 00:38:46;;;;;;;16.00;10.05;;;14.80;99.90;;;;;;4923090;29;20375;-87
2021/06/25 00:41:12;;;;;;;20.52;10.45;;;14.80;99.90;;;;;;4929214;28;20494;-87
2021/06/25 00:43:39;;;;;;;16.35;10.00;;;14.80;99.90;;;;;;4973936;28;20074;-87
2021/06/25 00:46:05;;;;;;;15.75;9.05;;;14.80;99.90;;;;;;4941973;28;20035;-86
2021/06/25 00:48:31;;;;;;;15.82;10.38;;;14.90;99.90;;;;;;4940741;29;20035;-88
2021/06/25 00:50:57;;;;;;;21.90;11.25;;;14.90;99.90;;;;;;4957548;28;20055;-88
2021/06/25 00:53:23;;;;;;;18.48;9.75;;;14.90;99.90;;;;;;4939522;28;20094;-87
2021/06/25 00:55:49;;;;;;;18.23;9.93;;;14.90;99.90;;;;;;4958242;28;20034;-87
2021/06/25 00:58:17;;;;;;;17.52;10.15;;;14.90;99.90;;;;;;4954450;28;20031;-87
2021/06/25 01:00:43;;;;;;;19.65;10.30;;;14.90;99.90;;;;;;4935989;28;20042;-87
2021/06/25 01:03:10;;;;;;;14.95;9.52;;;14.90;99.90;;;;;;4936441;29;20037;-87
2021/06/25 01:05:36;;;;;;;15.32;8.75;;;15.00;99.90;;;;;;4938780;29;20043;-87
2021/06/25 01:08:02;;;;;;;16.45;9.60;;;15.00;99.90;;;;;;4937289;29;20086;-88
2021/06/25 01:10:29;;;;;;;17.42;9.60;;;15.00;99.90;;;;;;4956344;28;20497;-87
2021/06/25 01:12:54;;;;;;;16.60;10.07;;;15.00;99.90;;;;;;4922223;29;20039;-87
2021/06/25 01:15:20;;;;;;;20.30;10.23;;;15.00;99.90;;;;;;4922754;29;20174;-88
2021/06/25 01:17:46;;;;;;;16.85;10.32;;;15.00;99.90;;;;;;4924172;29;20027;-87
2021/06/25 01:20:17;;;;;;;17.10;10.60;;;15.00;99.90;;;;;;4932011;28;20401;-87
2021/06/25 01:22:43;;;;;;;18.05;9.98;;;15.00;99.90;;;;;;4954363;28;20039;-87
2021/06/25 01:25:16;;;;;;;16.88;10.07;;;15.00;99.90;;;;;;4938244;28;20031;-87
2021/06/25 01:27:43;;;;;;;19.40;11.07;;;15.00;99.90;;;;;;4938116;28;20071;-87
2021/06/25 01:30:13;;;;;;;21.55;11.07;;;15.10;99.90;;;;;;4960109;28;20038;-87
2021/06/25 01:32:39;;;;;;;17.13;9.63;;;15.10;99.90;;;;;;4972234;28;20049;-88
2021/06/25 01:35:06;;;;;;;22.63;11.63;;;15.10;99.90;;;;;;4957372;28;20109;-87
2021/06/25 01:37:32;;;;;;;20.08;10.55;;;15.10;99.90;;;;;;4973486;28;20508;-87
2021/06/25 01:39:58;;;;;;;17.67;10.05;;;15.10;99.90;;;;;;4957009;28;20035;-87
2021/06/25 01:42:24;;;;;;;20.42;10.45;;;15.10;99.90;;;;;;4940791;28;20034;-87
2021/06/25 01:44:52;;;;;;;18.00;10.18;;;15.10;99.90;;;;;;4956971;28;20043;-87
2021/06/25 01:47:19;;;;;;;16.45;10.10;;;15.10;99.90;;;;;;4957094;28;20070;-87
2021/06/25 01:49:45;;;;;;;16.60;10.77;;;15.20;99.90;;;;;;4953031;28;20102;-86
2021/06/25 01:52:20;;;;;;;19.13;11.05;;;15.20;99.90;;;;;;4953093;29;20043;-87
2021/06/25 01:54:47;;;;;;;18.27;10.50;;;15.20;99.90;;;;;;4937946;29;20513;-87
2021/06/25 01:57:13;;;;;;;17.10;10.50;;;15.10;99.90;;;;;;4960938;28;20106;-87
2021/06/25 01:59:40;;;;;;;20.73;10.45;;;15.20;99.90;;;;;;4953667;29;20027;-87
2021/06/25 02:02:05;;;;;;;17.13;9.60;;;15.20;99.90;;;;;;4953120;28;20039;-88
2021/06/25 02:04:31;;;;;;;16.05;9.68;;;15.20;99.90;;;;;;4938073;29;20126;-87
2021/06/25 02:06:57;;;;;;;19.77;9.60;;;15.20;99.90;;;;;;4955625;28;20041;-86
2021/06/25 02:09:23;;;;;;;13.38;8.57;;;15.20;99.90;;;;;;4956496;28;20098;-87
2021/06/25 02:11:48;;;;;;;14.25;8.55;;;15.20;99.90;;;;;;4956229;28;20038;-87
2021/06/25 02:14:14;;;;;;;10.23;6.38;;;15.20;99.90;;;;;;4940338;28;20030;-87
2021/06/25 02:16:40;;;;;;;10.57;6.55;;;15.30;99.90;;;;;;4944923;28;20403;-87
2021/06/25 02:19:06;;;;;;;10.70;6.68;;;15.20;99.90;;;;;;4955690;28;20026;-87
2021/06/25 02:21:32;;;;;;;12.63;7.95;;;15.20;99.90;;;;;;4956392;28;20401;-87
2021/06/25 02:23:57;;;;;;;11.57;8.02;;;15.20;99.90;;;;;;4971854;28;20067;-86
2021/06/25 02:26:23;;;;;;;11.73;7.05;;;15.20;99.90;;;;;;4972129;28;20509;-88
2021/06/25 02:28:49;;;;;;;13.98;8.75;;;15.20;99.90;;;;;;4956395;28;20527;-88
2021/06/25 02:31:17;;;;;;;19.48;9.65;;;15.20;99.90;;;;;;4956133;28;20509;-87
2021/06/25 02:33:43;;;;;;;15.35;8.90;;;15.10;99.90;;;;;;4939832;28;20501;-87
2021/06/25 02:36:08;;;;;;;15.98;8.80;;;15.10;99.90;;;;;;4940467;28;20033;-88
2021/06/25 02:38:34;;;;;;;16.58;9.80;;;15.10;99.90;;;;;;4956161;28;20070;-87
2021/06/25 02:41:00;;;;;;;15.65;9.63;;;15.10;99.90;;;;;;4971932;28;20027;-86
2021/06/25 02:43:26;;;;;;;15.18;8.27;;;15.10;99.90;;;;;;4955550;28;20031;-87
2021/06/25 02:45:51;;;;;;;18.92;10.65;;;15.10;99.90;;;;;;4936797;29;20031;-86
2021/06/25 02:48:17;;;;;;;17.77;10.65;;;15.10;99.90;;;;;;4937067;29;20542;-88
2021/06/25 02:50:43;;;;;;;22.83;12.20;;;15.10;99.90;;;;;;4936186;29;20130;-87
2021/06/25 02:53:09;;;;;;;18.00;10.38;;;15.10;99.90;;;;;;4921741;29;20544;-88
2021/06/25 02:55:35;;;;;;;19.98;11.15;;;15.10;99.90;;;;;;4956295;28;20114;-86
2021/06/25 02:58:01;;;;;;;22.55;11.60;;;15.00;99.90;;;;;;4956250;28;20098;-88
2021/06/25 03:00:27;;;;;;;18.88;10.23;;;15.10;99.90;;;;;;4939743;28;20035;-86
2021/06/25 03:02:52;;;;;;;17.80;11.23;;;15.10;99.90;;;;;;4939798;28;20039;-88
2021/06/25 03:05:18;;;;;;;17.80;9.05;;;15.10;99.90;;;;;;4971903;28;20031;-87
2021/06/25 03:07:45;;;;;;;13.63;8.32;;;15.10;99.90;;;;;;4954439;28;20027;-87
2021/06/25 03:10:11;;;;;;;13.65;8.45;;;15.10;99.90;;;;;;4939436;28;20034;-88
2021/06/25 03:12:37;;;;;;;10.50;7.15;;;15.10;99.90;;;;;;4936348;29;20042;-88
2021/06/25 03:15:05;;;;;;;9.07;6.70;;;15.20;99.90;;;;;;4952503;29;20442;-86
2021/06/25 03:17:31;;;;;;;11.68;7.25;;;15.20;99.90;;;;;;4921225;29;20046;-87
2021/06/25 03:19:57;;;;;;;9.75;7.03;;;15.20;99.90;;;;;;4935527;29;20053;-86
2021/06/25 03:22:23;;;;;;;9.95;6.03;;;15.20;99.90;;;;;;4935736;29;20046;-87
2021/06/25 03:24:48;;;;;;;8.35;6.07;;;15.20;99.90;;;;;;4936277;29;20036;-86
2021/06/25 03:27:14;;;;;;;12.43;6.82;;;15.20;99.90;;;;;;4936503;29;20428;-87
2021/06/25 03:29:40;;;;;;;8.98;5.95;;;15.20;99.90;;;;;;4936156;29;20035;-89
2021/06/25 03:32:07;;;;;;;11.00;6.55;;;15.20;99.90;;;;;;4948199;28;20153;-88
2021/06/25 03:34:33;;;;;;;9.10;6.57;;;15.20;99.90;;;;;;4939558;28;20077;-89
2021/06/25 03:37:00;;;;;;;10.82;6.25;;;15.20;99.90;;;;;;4954955;28;20035;-89
2021/06/25 03:39:26;;;;;;;9.35;6.38;;;15.20;99.90;;;;;;4954909;28;20043;-88
2021/06/25 03:41:52;;;;;;;8.20;5.72;;;15.20;99.90;;;;;;4938813;28;20209;-89
2021/06/25 03:44:18;;;;;;;7.53;5.60;;;15.20;99.90;;;;;;4939013;28;20509;-89
2021/06/25 03:46:43;;;;;;;7.47;5.00;;;15.20;99.90;;;;;;4923761;28;20481;-89
2021/06/25 03:49:09;;;;;;;7.18;4.68;;;15.20;99.90;;;;;;4954654;28;20055;-88
2021/06/25 03:51:35;;;;;;;6.97;5.55;;;15.20;99.90;;;;;;4935317;28;20053;-89
2021/06/25 03:54:02;;;;;;;6.20;4.72;;;15.30;99.90;;;;;;4953966;28;20074;-89
2021/06/25 03:56:28;;;;;;;5.97;4.55;;;15.30;99.90;;;;;;4923705;28;20085;-89
2021/06/25 03:58:54;;;;;;;7.97;4.60;;;15.30;99.90;;;;;;4954625;28;20031;-89
2021/06/25 04:01:21;;;;;;;6.25;4.80;;;15.40;99.90;;;;;;4922682;28;20058;-88
2021/06/25 04:03:46;;;;;;;5.38;4.05;;;15.40;99.90;;;;;;4954289;28;20031;-88
2021/06/25 04:06:12;;;;;;;7.00;4.82;;;15.40;99.90;;;;;;4953602;28;20031;-89
2021/06/25 04:08:38;;;;;;;7.93;5.00;;;15.40;99.90;;;;;;4954946;28;20031;-89
2021/06/25 04:11:05;;;;;;;10.15;5.57;;;15.50;99.90;;;;;;4954102;28;20035;-89
2021/06/25 04:13:32;;;;;;;9.52;5.50;;;15.50;99.90;;;;;;4938072;28;20031;-88
2021/06/25 04:15:58;;;;;;;9.57;5.47;;;15.50;99.90;;;;;;4955369;28;20110;-88
2021/06/25 04:18:25;;;;;;;9.65;6.13;;;15.50;99.90;;;;;;4938840;28;20451;-89
2021/06/25 04:20:52;;;;;;;8.35;5.68;;;15.40;99.90;;;;;;4938335;28;20034;-88
2021/06/25 04:23:18;;;;;;;10.88;6.07;;;15.40;99.90;;;;;;4970475;28;20552;-89
2021/06/25 04:25:44;;;;;;;10.20;6.13;;;15.30;99.90;;;;;;4970924;28;20424;-89
2021/06/25 04:28:10;;;;;;;9.65;5.70;;;15.30;99.90;;;;;;4954970;28;20039;-89
2021/06/25 04:30:39;;;;;;;8.68;6.15;;;15.20;99.90;;;;;;4953939;28;20039;-88
2021/06/25 04:33:05;;;;;;;10.57;6.13;;;15.30;99.90;;;;;;4954177;28;20031;-90
2021/06/25 04:35:31;;;;;;;7.93;4.78;;;15.30;99.90;;;;;;4970671;28;20030;-89
2021/06/25 04:38:01;;;;;;;9.40;6.35;;;15.20;99.90;;;;;;4951095;28;20039;-87
2021/06/25 04:40:31;;;;;;;10.32;5.72;;;15.20;99.90;;;;;;4955053;28;20425;-89
2021/06/25 04:42:58;;;;;;;11.48;5.95;;;15.20;99.90;;;;;;4953933;28;20110;-89
2021/06/25 04:45:24;;;;;;;11.38;6.25;;;15.20;99.90;;;;;;4970853;28;20035;-89
2021/06/25 04:47:49;;;;;;;8.52;5.93;;;15.20;99.90;;;;;;4950516;28;20127;-89
2021/06/25 04:50:15;;;;;;;9.73;6.20;;;15.30;99.90;;;;;;4954009;28;20121;-89
2021/06/25 04:52:41;;;;;;;8.88;5.72;;;15.30;99.90;;;;;;4970070;28;20027;-86
2021/06/25 04:55:08;;;;;;;7.88;5.43;;;15.30;99.90;;;;;;4970446;28;20031;-88
2021/06/25 04:57:34;;;;;;;9.63;5.90;;;15.40;99.90;;;;;;4970767;28;20038;-89
2021/06/25 05:00:00;;;;;;;8.10;5.45;;;15.40;99.90;;;;;;4969818;28;20027;-89
2021/06/25 05:02:26;;;;;;;11.35;5.85;;;15.40;99.90;;;;;;4969943;28;20046;-89
2021/06/25 05:04:51;;;;;;;11.05;7.00;;;15.40;99.90;;;;;;4971652;28;20045;-88
2021/06/25 05:07:17;;;;;;;10.30;5.60;;;15.40;99.90;;;;;;4956835;28;20141;-88
2021/06/25 05:09:44;;;;;;;9.10;5.78;;;15.40;99.90;;;;;;4966985;28;20038;-88
2021/06/25 05:12:10;;;;;;;11.18;6.03;;;15.50;99.90;;;;;;4956947;28;20040;-89
2021/06/25 05:14:36;;;;;;;7.82;5.13;;;15.50;99.90;;;;;;4975237;28;20083;-89
2021/06/25 05:17:02;;;;;;;9.82;6.35;;;15.40;99.90;;;;;;4959505;28;20093;-87
2021/06/25 05:19:28;;;;;;;9.00;6.15;;;15.50;99.90;;;;;;4955571;28;20041;-90
2021/06/25 05:21:54;;;;;;;10.23;6.68;;;15.40;99.90;;;;;;4954589;29;20031;-89
2021/06/25 05:24:19;;;;;;;12.68;7.55;;;15.40;99.90;;;;;;4966549;28;20026;-87
2021/06/25 05:26:45;;;;;;;11.00;6.80;;;15.30;99.90;;;;;;4955237;28;20078;-86
2021/06/25 05:29:11;;;;;;;10.82;6.20;;;15.20;99.90;;;;;;4957968;28;20042;-88
2021/06/25 05:31:37;;;;;;;11.43;6.80;;;15.20;99.90;;;;;;4952182;28;20528;-86
2021/06/25 05:34:03;;;;;;;10.13;6.15;;;15.10;99.90;;;;;;4921926;29;20122;-86
2021/06/25 05:36:28;;;;;;;10.45;6.10;;;15.10;99.90;;;;;;4943185;28;20031;-87
2021/06/25 05:38:54;;;;;;;9.73;6.15;;;15.00;99.90;;;;;;4941418;28;20090;-87
2021/06/25 05:41:20;;;;;;;10.48;6.60;;;15.00;99.90;;;;;;4922172;29;20035;-89
2021/06/25 05:43:46;;;;;;;11.45;6.50;;;15.00;99.90;;;;;;4937875;29;20479;-88
2021/06/25 05:46:12;;;;;;;9.88;6.20;;;15.00;99.90;;;;;;4949465;28;20019;-89
2021/06/25 05:48:39;;;;;;;12.20;6.78;;;15.00;99.90;;;;;;4957751;28;20481;-88
2021/06/25 05:51:05;;;;;;;11.55;6.15;;;15.00;99.90;;;;;;4940566;28;20301;-88
2021/06/25 05:53:32;;;;;;;9.82;6.13;;;15.10;99.90;;;;;;4957017;28;20512;-88
2021/06/25 05:55:58;;;;;;;12.55;7.00;;;15.10;99.90;;;;;;4970629;28;20556;-88
2021/06/25 05:58:27;;;;;;;10.90;7.15;;;15.10;99.90;;;;;;4955149;28;20470;-88
2021/06/25 06:00:53;;;;;;;15.52;8.73;;;15.20;99.90;;;;;;4957027;28;20076;-88
2021/06/25 06:03:19;;;;;;;15.60;8.02;;;15.20;99.90;;;;;;4925225;28;20121;-89
2021/06/25 06:05:44;;;;;;;16.90;9.63;;;15.20;99.90;;;;;;4931234;28;20027;-89
2021/06/25 06:08:10;;;;;;;14.48;8.18;;;15.20;99.90;;;;;;4955741;28;20109;-89
2021/06/25 06:10:36;;;;;;;16.83;9.15;;;15.20;99.90;;;;;;4954549;28;20031;-89
2021/06/25 06:13:02;;;;;;;13.38;7.63;;;15.20;99.90;;;;;;4953426;28;20142;-88
2021/06/25 06:15:28;;;;;;;15.85;8.88;;;15.20;99.90;;;;;;4961102;28;20571;-88
2021/06/25 06:17:56;;;;;;;15.65;9.25;;;15.30;99.90;;;;;;4954174;28;20166;-88
2021/06/25 06:20:24;;;;;;;14.77;8.30;;;15.30;99.90;;;;;;4954523;28;20404;-88
2021/06/25 06:31:22;;;;;;;18.00;9.82;;;15.50;99.90;;;;;;4958508;28;20135;-88
2021/06/25 06:36:47;;;;;;;15.82;9.93;;;15.60;99.90;;;;;;4940903;29;20051;-89
2021/06/25 06:39:14;;;;;;;16.13;9.07;;;15.70;99.90;;;;;;4951644;29;20045;-88
2021/06/25 06:41:40;;;;;;;18.00;9.85;;;15.80;99.90;;;;;;4952735;28;20086;-88
2021/06/25 06:44:07;;;;;;;14.32;9.05;;;15.90;99.90;;;;;;4959645;28;20038;-88
2021/06/25 06:46:35;;;;;;;13.88;8.70;;;16.00;99.90;;;;;;4952780;28;20058;-89
2021/06/25 06:49:02;;;;;;;16.15;9.15;;;16.10;99.90;;;;;;4936572;29;20520;-88
2021/06/25 06:51:29;;;;;;;13.00;8.02;;;16.20;99.90;;;;;;4964432;28;20039;-89
2021/06/25 06:54:00;;;;;;;18.80;8.82;;;16.20;99.90;;;;;;4975851;28;20029;-89
2021/06/25 06:56:26;;;;;;;10.95;7.70;;;16.30;99.90;;;;;;4957659;28;20461;-88
2021/06/25 06:58:53;;;;;;;12.70;8.30;;;16.40;99.90;;;;;;4959294;28;20030;-89
2021/06/25 07:01:20;;;;;;;11.25;7.15;;;16.50;99.90;;;;;;4957325;28;20035;-89
2021/06/25 07:03:46;;;;;;;12.85;7.60;;;16.50;99.90;;;;;;4954825;28;20038;-89
2021/06/25 07:06:13;;;;;;;10.95;7.05;;;16.50;99.90;;;;;;4956242;28;20031;-88
2021/06/25 07:08:39;;;;;;;11.52;7.07;;;16.60;99.90;;;;;;4936925;29;20035;-88
2021/06/25 07:11:05;;;;;;;9.85;6.22;;;16.70;99.90;;;;;;4939296;29;20038;-89
2021/06/25 07:13:31;;;;;;;12.55;7.93;;;16.70;99.90;;;;;;4952181;29;20178;-88
2021/06/25 07:15:57;;;;;;;10.90;7.28;;;16.70;99.90;;;;;;4939546;28;20089;-88
2021/06/25 07:18:26;;;;;;;9.10;6.30;;;16.60;99.90;;;;;;4971740;28;20117;-88
2021/06/25 07:20:52;;;;;;;9.50;6.60;;;16.50;99.90;;;;;;4955172;28;20039;-88
2021/06/25 07:23:19;;;;;;;8.82;5.72;;;16.60;99.90;;;;;;4954861;28;20031;-88
2021/06/25 07:25:45;;;;;;;9.30;6.50;;;16.60;99.90;;;;;;4981730;28;20473;-88
2021/06/25 07:28:11;;;;;;;8.93;5.40;;;16.60;99.90;;;;;;4962217;28;20401;-87
2021/06/25 07:30:37;;;;;;;10.68;6.43;;;16.70;99.90;;;;;;4975754;28;20037;-89
2021/06/25 07:33:03;;;;;;;9.35;6.18;;;16.70;99.90;;;;;;4935756;29;20565;-89
2021/06/25 07:35:29;;;;;;;6.15;4.82;;;16.70;99.90;;;;;;4953226;28;20367;-88
2021/06/25 07:37:56;;;;;;;7.68;6.15;;;16.70;99.90;;;;;;4943392;28;20877;-86
2021/06/25 07:40:21;;;;;;;6.18;4.85;;;16.80;99.90;;;;;;4971668;28;20033;-87
2021/06/25 07:42:48;;;;;;;6.32;4.82;;;16.90;99.90;;;;;;4955083;28;20031;-88
2021/06/25 07:45:14;;;;;;;5.47;4.70;;;16.80;99.90;;;;;;4938290;28;20039;-88
2021/06/25 07:47:43;;;;;;;5.82;4.20;;;16.80;99.90;;;;;;4969966;28;20118;-87
2021/06/25 07:50:11;;;;;;;12.40;5.22;;;16.80;99.90;;;;;;4950732;28;20027;-88
2021/06/25 07:52:37;;;;;;;7.28;5.32;;;16.80;99.90;;;;;;4950378;28;20039;-87
2021/06/25 07:55:04;;;;;;;6.00;4.75;;;16.70;99.90;;;;;;4936037;28;20038;-89
2021/06/25 07:57:30;;;;;;;5.90;5.03;;;16.70;99.90;;;;;;4970005;28;20023;-89
2021/06/25 07:59:56;;;;;;;6.05;4.72;;;16.70;99.90;;;;;;4951850;28;20131;-88
2021/06/25 08:02:21;;;;;;;6.22;5.05;;;16.70;99.90;;;;;;4951556;29;20106;-89
2021/06/25 08:04:47;;;;;;;6.90;3.97;;;16.70;99.90;;;;;;4936368;29;20039;-89
2021/06/25 08:07:14;;;;;;;5.05;3.78;;;16.70;99.90;;;;;;4941176;28;20190;-89
2021/06/25 08:09:40;;;;;;;4.18;3.78;;;16.70;99.90;;;;;;4952408;28;20542;-88
2021/06/25 08:12:10;;;;;;;4.78;3.80;;;16.60;99.90;;;;;;4955627;28;20101;-87
2021/06/25 08:14:37;;;;;;;4.30;3.90;;;16.60;99.90;;;;;;4952689;28;20042;-88
2021/06/25 08:17:04;;;;;;;3.70;3.38;;;16.60;99.90;;;;;;4951971;28;20042;-89
2021/06/25 08:19:30;;;;;;;5.03;3.60;;;16.70;99.90;;;;;;4944479;28;20054;-90
2021/06/25 08:21:56;;;;;;;5.05;3.92;;;16.80;99.90;;;;;;4944961;28;20031;-88
2021/06/25 08:24:23;;;;;;;4.80;4.20;;;16.80;99.90;;;;;;4948967;28;20058;-87
2021/06/25 08:26:49;;;;;;;3.85;3.35;;;16.80;99.90;;;;;;4958253;28;20042;-88
2021/06/25 08:29:15;;;;;;;4.00;3.60;;;16.90;99.90;;;;;;4965333;28;20734;-88
2021/06/25 08:31:41;;;;;;;3.65;3.35;;;17.10;99.90;;;;;;4943450;29;20077;-88
2021/06/25 08:34:11;;;;;;;4.47;3.17;;;17.20;99.90;;;;;;4950715;28;20113;-88
2021/06/25 08:36:38;;;;;;;3.55;3.25;;;17.20;99.90;;;;;;4921466;28;20039;-88
2021/06/25 08:39:05;;;;;;;3.38;3.08;;;17.30;99.90;;;;;;4966498;28;20065;-88
2021/06/25 08:41:34;;;;;;;3.40;3.10;;;17.40;99.90;;;;;;4966975;28;20027;-86
2021/06/25 08:44:00;;;;;;;2.33;2.17;;;17.40;99.90;;;;;;4935567;29;20375;-88
2021/06/25 08:46:28;;;;;;;2.40;2.20;;;17.40;99.90;;;;;;4936350;29;20046;-89
2021/06/25 08:48:55;;;;;;;2.92;2.22;;;17.50;99.90;;;;;;4950996;28;20078;-90
2021/06/25 08:51:22;;;;;;;1.77;1.67;;;17.50;99.90;;;;;;4956391;28;20026;-87
2021/06/25 08:53:49;;;;;;;2.47;2.20;;;17.50;99.90;;;;;;4971161;28;20122;-88
2021/06/25 08:56:15;;;;;;;2.00;1.80;;;17.60;99.90;;;;;;4971854;28;20025;-87
2021/06/25 08:58:41;;;;;;;2.20;2.00;;;17.70;99.90;;;;;;4960393;28;20039;-87
2021/06/25 09:01:07;;;;;;;1.60;1.50;;;17.80;99.90;;;;;;4968398;28;20031;-86
2021/06/25 09:03:35;;;;;;;1.92;1.73;;;17.90;99.90;;;;;;4955844;28;20031;-87
2021/06/25 09:06:12;;;;;;;2.08;1.92;;;17.90;99.90;;;;;;4940726;28;20031;-87
2021/06/25 09:08:39;;;;;;;1.70;1.60;;;17.90;99.90;;;;;;4956643;28;20102;-88
2021/06/25 09:11:24;;;;;;;1.70;1.60;;;17.90;99.90;;;;;;4954889;28;20033;-88
2021/06/25 09:13:57;;;;;;;2.15;1.83;;;17.80;99.90;;;;;;4951045;28;20670;-88
2021/06/25 09:16:28;;;;;;;1.70;1.50;;;17.70;99.90;;;;;;4957029;28;20035;-88
2021/06/25 09:19:07;;;;;;;1.67;1.58;;;17.70;99.90;;;;;;4953050;28;20031;-88
2021/06/25 09:21:44;;;;;;;1.40;1.30;;;17.60;99.90;;;;;;4944985;28;20071;-88
2021/06/25 09:24:19;;;;;;;1.00;1.00;;;17.60;99.90;;;;;;4934459;28;20478;-87
2021/06/25 09:26:46;;;;;;;1.60;1.17;;;17.60;99.90;;;;;;4948162;29;20093;-88
2021/06/25 09:29:18;;;;;;;1.85;0.95;;;17.50;99.90;;;;;;4967030;28;20020;-88
2021/06/25 09:31:44;;;;;;;1.40;0.90;;;17.40;99.90;;;;;;4955586;28;20050;-89
2021/06/25 09:34:11;;;;;;;1.35;1.23;;;17.40;99.90;;;;;;4955414;28;20031;-90
2021/06/25 09:36:39;;;;;;;1.90;1.48;;;17.30;99.90;;;;;;4937199;28;20034;-88
2021/06/25 09:39:13;;;;;;;2.47;1.80;;;17.40;99.90;;;;;;4956797;28;20034;-88
2021/06/25 09:41:42;;;;;;;2.78;2.08;;;17.40;99.90;;;;;;4935487;29;20275;-88
2021/06/25 09:44:14;;;;;;;2.78;2.03;;;17.40;99.90;;;;;;4952828;28;20109;-90
2021/06/25 09:46:43;;;;;;;2.38;2.17;;;17.60;99.90;;;;;;4970967;28;20075;-88
2021/06/25 09:49:11;;;;;;;3.13;2.20;;;17.60;99.90;;;;;;4955234;28;20073;-89
2021/06/25 09:51:38;;;;;;;2.85;2.08;;;17.60;99.90;;;;;;4953358;28;20031;-89
2021/06/25 09:54:15;;;;;;;1.85;1.75;;;17.70;99.90;;;;;;4969753;28;20034;-90
2021/06/25 09:56:51;;;;;;;4.50;2.15;;;17.70;99.90;;;;;;4954608;28;20030;-89
2021/06/25 10:02:19;;;;;;;4.53;3.13;;;17.90;99.90;;;;;;4965645;28;20106;-89
2021/06/25 10:04:46;;;;;;;;;;;17.80;99.90;;;;;;4937020;29;20094;-89
2021/06/25 10:07:13;;;;;;;7.30;4.80;;;17.80;99.90;;;;;;4952868;28;20021;-90
2021/06/25 10:09:44;;;;;;;6.80;5.38;;;17.80;99.90;;;;;;4953588;28;20058;-91
2021/06/25 10:12:13;;;;;;;9.32;5.65;;;17.90;99.90;;;;;;4952079;29;20032;-90
2021/06/25 10:14:40;;;;;;;11.68;7.22;;;17.90;99.90;;;;;;4967975;28;20034;-90
2021/06/25 10:17:08;;;;;;;10.48;6.72;;;17.90;99.90;;;;;;4954362;28;20031;-88
2021/06/25 10:19:40;;;;;;;8.23;5.63;;;18.00;99.90;;;;;;4953202;28;20092;-89
2021/06/25 10:22:08;;;;;;;10.05;6.50;;;18.20;99.90;;;;;;4951490;28;20038;-90
2021/06/25 10:24:35;;;;;;;12.95;7.45;;;18.40;99.90;;;;;;4935455;29;20126;-89
2021/06/25 10:27:04;;;;;;;9.82;7.28;;;18.70;99.90;;;;;;4953814;28;20035;-89
2021/06/25 10:29:39;;;;;;;10.23;6.80;;;19.00;99.90;;;;;;4939575;28;20034;-90
2021/06/25 10:32:08;;;;;;;8.70;5.85;;;19.20;99.90;;;;;;4970443;28;20063;-91
2021/06/25 10:34:39;;;;;;;10.15;6.00;;;19.30;99.90;;;;;;4936018;28;20027;-88
2021/06/25 10:37:07;;;;;;;7.90;5.80;;;19.40;99.90;;;;;;4965467;28;20031;-88
2021/06/25 10:39:35;;;;;;;7.65;5.57;;;19.40;99.90;;;;;;4952409;28;20042;-89
2021/06/25 10:42:04;;;;;;;9.20;5.90;;;19.50;99.90;;;;;;4933793;29;20031;-88
2021/06/25 10:44:30;;;;;;;7.60;5.75;;;19.50;99.90;;;;;;4945619;28;20039;-88
2021/06/25 10:47:11;;;;;;;8.18;5.25;;;19.60;99.90;;;;;;4967642;28;20034;-88
2021/06/25 10:50:00;;;;;;;7.65;5.15;;;19.60;99.90;;;;;;4949648;28;20035;-88
2021/06/25 10:52:32;;;;;;;7.47;5.38;;;19.70;99.90;;;;;;4961777;28;20410;-87
2021/06/25 10:55:13;;;;;;;8.32;5.40;;;19.80;99.90;;;;;;4939095;28;20030;-89
2021/06/25 10:57:58;;;;;;;6.47;4.82;;;20.00;99.90;;;;;;4952622;28;20517;-88
2021/06/25 11:00:39;;;;;;;5.07;4.03;;;20.30;99.90;;;;;;4965524;28;20035;-88
2021/06/25 11:03:42;;;;;;;5.90;4.63;;;20.50;99.90;;;;;;4936368;28;20082;-86
2021/06/25 11:06:33;;;;;;;6.07;4.40;;;20.60;99.90;;;;;;4933679;29;20035;-87
2021/06/25 11:09:04;;;;;;;5.18;4.22;;;20.80;99.90;;;;;;4938063;28;20042;-87
2021/06/25 11:11:30;;;;;;;5.55;4.40;;;21.00;99.90;;;;;;4947046;28;20043;-85
2021/06/25 11:13:56;;;;;;;4.70;4.07;;;21.00;99.90;;;;;;4952144;28;20092;-87
2021/06/25 11:16:22;;;;;;;5.10;4.25;;;21.20;99.90;;;;;;4936977;28;20034;-87
2021/06/25 11:18:48;;;;;;;5.50;3.72;;;21.40;99.90;;;;;;4944871;28;20035;-86
2021/06/25 11:21:14;;;;;;;5.28;3.95;;;21.70;99.90;;;;;;4968639;28;20405;-87
2021/06/25 11:23:42;;;;;;;4.78;3.72;;;21.90;99.90;;;;;;4968465;28;20035;-87
2021/06/25 11:26:14;;;;;;;3.30;3.00;;;22.10;99.90;;;;;;4964287;28;20029;-87
2021/06/25 11:28:41;;;;;;;3.28;2.97;;;22.10;99.90;;;;;;4934525;28;20289;-89
2021/06/25 11:31:06;;;;;;;2.88;2.60;;;22.20;99.90;;;;;;4951247;28;20113;-87
2021/06/25 11:33:58;;;;;;;2.30;2.10;;;22.30;99.90;;;;;;4935383;28;20169;-88
2021/06/25 11:36:26;;;;;;;3.28;2.38;;;22.50;99.90;;;;;;4934857;28;20055;-87
2021/06/25 11:39:00;;;;;;;2.17;1.98;;;22.70;99.90;;;;;;4968030;28;20027;-90
2021/06/25 11:41:35;;;;;;;2.13;1.93;;;22.80;99.90;;;;;;4960756;28;20114;-87
2021/06/25 11:44:13;;;;;;;2.53;2.30;;;22.80;99.90;;;;;;4953904;28;20278;-88
2021/06/25 11:46:58;;;;;;;3.00;2.70;;;22.60;99.90;;;;;;4953220;28;20309;-88
2021/06/25 11:49:46;;;;;;;2.28;2.08;;;22.40;99.90;;;;;;4948665;29;20082;-88
2021/06/25 11:52:33;;;;;;;2.00;1.77;;;22.40;99.90;;;;;;4932151;29;20035;-87
2021/06/25 11:55:06;;;;;;;2.50;2.30;;;22.20;99.90;;;;;;4967388;28;20118;-89
2021/06/25 11:57:34;;;;;;;2.50;2.30;;;22.00;99.90;;;;;;4946346;28;20027;-89
2021/06/25 12:00:16;;;;;;;2.03;1.90;;;21.90;99.90;;;;;;4954383;28;20027;-88
2021/06/25 12:02:55;;;;;;;2.83;2.20;;;21.70;99.90;;;;;;4956639;28;20101;-88
2021/06/25 12:05:25;;;;;;;2.17;2.08;;;21.50;99.90;;;;;;4967479;28;20027;-87
2021/06/25 12:08:10;;;;;;;3.05;1.77;;;21.80;99.90;;;;;;4955123;28;20110;-88
2021/06/25 12:10:38;;;;;;;1.90;1.55;;;22.20;99.90;;;;;;4945760;28;20046;-90
2021/06/25 12:13:04;;;;;;;1.90;1.70;;;22.70;99.90;;;;;;4968092;28;20410;-89
2021/06/25 12:15:30;;;;;;;1.40;1.30;;;23.10;99.90;;;;;;4967482;28;20049;-89
2021/06/25 12:17:57;;;;;;;1.27;1.17;;;23.30;99.90;;;;;;4946335;28;20186;-88
2021/06/25 12:20:26;;;;;;;1.13;0.90;;;23.50;99.90;;;;;;4951741;28;20023;-88
2021/06/25 12:22:59;;;;;;;1.48;1.30;;;23.40;99.90;;;;;;4932661;28;20035;-86
2021/06/25 12:25:37;;;;;;;1.20;1.10;;;23.30;99.90;;;;;;4960643;28;20158;-90
2021/06/25 12:28:10;;;;;;;1.20;1.10;;;22.90;99.90;;;;;;4963020;28;20058;-88
2021/06/25 12:30:39;;;;;;;1.60;1.50;;;22.60;99.90;;;;;;4950972;28;20031;-89
2021/06/25 12:33:07;;;;;;;1.05;1.00;;;22.50;99.90;;;;;;4944746;28;20065;-89
2021/06/25 12:35:36;;;;;;;1.30;1.20;;;22.40;99.90;;;;;;4946638;28;20038;-90
2021/06/25 12:38:08;;;;;;;1.52;1.42;;;22.30;99.90;;;;;;4962090;28;20084;-88
2021/06/25 12:40:37;;;;;;;1.50;1.40;;;22.20;99.90;;;;;;4961115;28;20035;-89
2021/06/25 12:43:04;;;;;;;1.40;1.30;;;22.10;99.90;;;;;;4952316;28;20034;-90
2021/06/25 12:45:51;;;;;;;1.80;1.52;;;22.10;99.90;;;;;;4940479;28;20031;-89
2021/06/25 12:48:23;;;;;;;1.30;1.20;;;22.20;99.90;;;;;;4961310;28;20068;-88
2021/06/25 12:50:58;;;;;;;1.67;1.58;;;22.30;99.90;;;;;;4950358;28;20031;-88
2021/06/25 12:53:28;;;;;;;3.45;1.90;;;22.50;99.90;;;;;;4951608;28;20035;-88
2021/06/25 12:55:56;;;;;;;2.35;2.15;;;22.70;99.90;;;;;;4935082;28;20039;-90
2021/06/25 12:58:24;;;;;;;1.80;1.70;;;23.00;99.90;;;;;;4949157;28;20058;-88
2021/06/25 13:00:59;;;;;;;1.60;1.42;;;23.10;99.90;;;;;;4954274;28;20026;-89